Time;durP1;ratioP1;P1;durP2;ratioP2;P2;SDS_P1;SDS_P2;PMS_P1;PMS_P2;Temp;Humidity;BMP_temperature;BMP_pressure;BME280_temperature;BME280_humidity;BME280_pressure;Samples;Min_cycle;Max_cycle;Signal;HPM_P1;HPM_P2
2021/10/30 08:06:21;;;;;;;7.28;5.72;;;;;;;;;;6219373;22;20077;-84
2021/10/30 08:08:46;;;;;;;7.20;5.45;;;;;;;;;;6246784;23;20043;-84
2021/10/30 08:11:12;;;;;;;8.05;5.80;;;;;;;;;;6246690;22;20000;-84
2021/10/30 08:13:38;;;;;;;9.48;5.97;;;;;;;;;;6247007;23;20004;-84
2021/10/30 08:16:03;;;;;;;8.38;6.18;;;;;;;;;;6245214;23;20012;-84
2021/10/30 08:18:29;;;;;;;13.52;6.32;;;;;;;;;;6246819;22;20319;-83
2021/10/30 08:20:54;;;;;;;6.78;5.47;;;;;;;;;;6246802;22;20004;-85
2021/10/30 08:23:20;;;;;;;7.82;5.80;;;;;;;;;;6246928;22;20000;-85
2021/10/30 08:25:45;;;;;;;8.55;5.68;;;;;;;;;;6247309;22;20079;-85
2021/10/30 08:28:11;;;;;;;8.07;5.68;;;;;;;;;;6246849;22;20001;-83
2021/10/30 08:30:36;;;;;;;7.63;5.75;;;;;;;;;;6246870;22;20011;-84
2021/10/30 08:33:02;;;;;;;6.88;5.50;;;;;;;;;;6247117;22;20004;-83
2021/10/30 08:35:27;;;;;;;7.85;5.35;;;;;;;;;;6246824;23;20371;-84
2021/10/30 08:37:53;;;;;;;9.93;5.57;;;;;;;;;;6247193;23;20043;-84
2021/10/30 08:40:18;;;;;;;7.93;5.30;;;;;;;;;;6247161;22;20008;-83
2021/10/30 08:42:48;;;;;;;9.00;5.45;;;;;;;;;;6247388;22;20311;-84
2021/10/30 08:45:15;;;;;;;10.10;4.88;;;;;;;;;;6248260;22;20419;-84
2021/10/30 08:47:42;;;;;;;8.10;5.40;;;;;;;;;;6251094;22;20050;-83
2021/10/30 08:50:09;;;;;;;10.07;5.90;;;;;;;;;;6251766;22;20004;-83
2021/10/30 08:52:35;;;;;;;8.10;5.75;;;;;;;;;;6250101;22;20454;-84
2021/10/30 08:55:06;;;;;;;8.43;5.80;;;;;;;;;;6249575;22;20001;-83
2021/10/30 08:57:32;;;;;;;6.50;5.28;;;;;;;;;;6249498;22;20010;-83
2021/10/30 09:00:17;;;;;;;35.28;6.93;;;;;;;;;;6248543;22;20075;-83
2021/10/30 09:02:43;;;;;;;13.82;5.43;;;;;;;;;;6248346;22;20004;-83
2021/10/30 09:05:22;;;;;;;13.60;5.85;;;;;;;;;;6248338;22;20050;-83
2021/10/30 09:07:54;;;;;;;14.05;6.32;;;;;;;;;;6248374;22;20015;-83
2021/10/30 09:10:29;;;;;;;8.52;5.68;;;;;;;;;;6248293;22;20008;-83
2021/10/30 09:12:57;;;;;;;8.25;5.63;;;;;;;;;;6247923;22;20028;-82
2021/10/30 09:15:48;;;;;;;6.25;5.53;;;;;;;;;;6248479;22;20004;-83
2021/10/30 09:18:30;;;;;;;7.35;5.85;;;;;;;;;;6246736;23;20035;-89
2021/10/30 09:21:04;;;;;;;25.10;16.70;;;;;;;;;;6248467;22;20506;-83
2021/10/30 09:23:35;;;;;;;11.93;7.90;;;;;;;;;;6247874;22;20004;-84
2021/10/30 09:26:04;;;;;;;8.07;6.18;;;;;;;;;;6248149;22;19996;-82
2021/10/30 09:28:33;;;;;;;7.03;5.63;;;;;;;;;;6248099;22;20071;-82
2021/10/30 09:31:04;;;;;;;10.40;5.93;;;;;;;;;;6248319;22;20391;-79
2021/10/30 09:33:32;;;;;;;8.00;5.85;;;;;;;;;;6247948;22;20549;-82
2021/10/30 09:36:18;;;;;;;8.70;6.13;;;;;;;;;;6248651;22;20000;-83
2021/10/30 09:38:46;;;;;;;6.97;6.07;;;;;;;;;;6247609;23;20012;-83
2021/10/30 09:41:28;;;;;;;7.78;6.63;;;;;;;;;;6248076;22;20008;-81
2021/10/30 09:44:04;;;;;;;6.63;5.75;;;;;;;;;;6248159;22;20004;-80
2021/10/30 09:46:32;;;;;;;13.25;8.52;;;;;;;;;;6246262;23;20023;-81
2021/10/30 09:49:09;;;;;;;11.60;10.23;;;;;;;;;;6246137;23;20042;-80
2021/10/30 09:51:36;;;;;;;8.15;6.80;;;;;;;;;;6247891;22;20442;-82
2021/10/30 09:54:07;;;;;;;6.30;5.25;;;;;;;;;;6247840;22;20008;-82
2021/10/30 09:56:45;;;;;;;5.65;5.10;;;;;;;;;;6247945;22;20002;-84
2021/10/30 09:59:12;;;;;;;5.38;4.88;;;;;;;;;;6246782;23;20023;-82
2021/10/30 10:01:39;;;;;;;5.93;5.20;;;;;;;;;;6247751;22;20069;-82
2021/10/30 10:04:05;;;;;;;8.77;5.20;;;;;;;;;;6247854;22;20011;-81
2021/10/30 10:06:34;;;;;;;5.07;4.53;;;;;;;;;;6247626;22;20035;-79
2021/10/30 10:09:03;;;;;;;5.50;5.00;;;;;;;;;;6252934;22;20046;-85
2021/10/30 10:11:29;;;;;;;5.32;4.82;;;;;;;;;;6278257;22;20012;-86
2021/10/30 10:13:55;;;;;;;6.78;4.72;;;;;;;;;;6278677;22;20046;-81
2021/10/30 10:16:22;;;;;;;4.90;4.43;;;;;;;;;;6278587;22;20075;-84
2021/10/30 10:18:49;;;;;;;5.10;3.92;;;;;;;;;;6278401;22;20027;-81
2021/10/30 10:21:19;;;;;;;6.50;4.22;;;;;;;;;;6278089;22;20037;-84
2021/10/30 10:23:44;;;;;;;6.22;4.60;;;;;;;;;;6251247;22;20434;-80
2021/10/30 10:26:11;;;;;;;5.68;4.47;;;;;;;;;;6277919;22;20003;-80
2021/10/30 10:28:37;;;;;;;5.25;4.55;;;;;;;;;;6278416;22;19996;-85
2021/10/30 10:31:22;;;;;;;5.57;4.95;;;;;;;;;;6278259;22;19999;-83
2021/10/30 10:34:09;;;;;;;5.47;4.97;;;;;;;;;;6277999;22;20078;-81
2021/10/30 10:36:37;;;;;;;5.68;5.13;;;;;;;;;;6277743;22;20006;-87
2021/10/30 10:39:02;;;;;;;5.53;4.93;;;;;;;;;;6278307;22;20083;-78
2021/10/30 10:41:43;;;;;;;8.05;6.50;;;;;;;;;;6278115;22;19995;-78
2021/10/30 10:44:15;;;;;;;5.72;4.90;;;;;;;;;;6277903;22;20083;-79
2021/10/30 10:46:47;;;;;;;5.82;5.20;;;;;;;;;;6277770;22;20010;-78
2021/10/30 10:52:16;;;;;;;6.80;5.88;;;;;;;;;;6278176;22;20047;-82
2021/10/30 10:54:56;;;;;;;6.57;5.15;;;;;;;;;;6277937;22;20390;-80
2021/10/30 10:57:23;;;;;;;8.35;5.75;;;;;;;;;;6250688;22;20331;-79
2021/10/30 11:00:00;;;;;;;8.60;5.78;;;;;;;;;;6277688;22;19995;-79
2021/10/30 11:02:31;;;;;;;7.72;5.82;;;;;;;;;;6277659;22;20004;-80
2021/10/30 11:05:08;;;;;;;7.82;5.40;;;;;;;;;;6278210;22;20049;-79
2021/10/30 11:07:37;;;;;;;6.57;5.03;;;;;;;;;;6277186;22;20004;-79
2021/10/30 11:10:08;;;;;;;7.75;5.97;;;;;;;;;;6277403;22;20015;-80
2021/10/30 11:12:34;;;;;;;7.30;5.18;;;;;;;;;;6277283;22;20026;-79
2021/10/30 11:15:16;;;;;;;10.85;5.72;;;;;;;;;;6277617;22;20439;-79
2021/10/30 11:18:12;;;;;;;7.95;5.60;;;;;;;;;;6250390;22;20054;-79
2021/10/30 11:20:46;;;;;;;7.30;5.50;;;;;;;;;;6276592;22;20423;-79
2021/10/30 11:23:28;;;;;;;8.77;5.93;;;;;;;;;;6277313;22;20003;-80
2021/10/30 11:26:07;;;;;;;6.47;5.15;;;;;;;;;;6278711;22;20000;-81
2021/10/30 11:28:34;;;;;;;7.53;5.20;;;;;;;;;;6278497;22;20006;-81
2021/10/30 11:31:11;;;;;;;6.00;5.40;;;;;;;;;;6279493;22;20427;-81
2021/10/30 11:33:39;;;;;;;6.22;5.40;;;;;;;;;;6278921;22;20010;-81
2021/10/30 11:36:10;;;;;;;7.10;5.63;;;;;;;;;;6278991;22;20022;-80
2021/10/30 11:38:39;;;;;;;6.70;6.00;;;;;;;;;;6278463;22;20003;-81
2021/10/30 11:41:08;;;;;;;7.82;5.45;;;;;;;;;;6278611;22;20323;-80
2021/10/30 11:43:35;;;;;;;;;;;;;;;;;;6279262;22;20003;-80
2021/10/30 11:46:09;;;;;;;8.80;6.70;;;;;;;;;;6278990;22;19918;-80
2021/10/30 11:48:47;;;;;;;14.88;8.20;;;;;;;;;;6277861;22;20079;-79
2021/10/30 11:51:19;;;;;;;13.15;9.45;;;;;;;;;;6277542;22;20308;-79
2021/10/30 11:53:46;;;;;;;8.50;6.25;;;;;;;;;;6277731;22;20004;-79
2021/10/30 11:56:16;;;;;;;11.88;10.23;;;;;;;;;;6277753;22;19999;-79
2021/10/30 11:58:48;;;;;;;9.65;8.20;;;;;;;;;;6277678;22;20055;-78
2021/10/30 12:01:33;;;;;;;13.38;8.93;;;;;;;;;;6277564;22;19999;-78
2021/10/30 12:04:01;;;;;;;9.43;7.40;;;;;;;;;;6277481;22;20384;-80
2021/10/30 12:06:28;;;;;;;9.38;7.88;;;;;;;;;;6277538;22;20112;-84
2021/10/30 12:08:56;;;;;;;8.70;6.88;;;;;;;;;;6278441;22;20006;-81
2021/10/30 12:11:25;;;;;;;7.88;6.22;;;;;;;;;;6278427;22;20381;-82
2021/10/30 12:13:54;;;;;;;8.05;6.70;;;;;;;;;;6277151;22;20035;-81
2021/10/30 12:16:20;;;;;;;7.05;5.95;;;;;;;;;;6277189;22;20038;-81
2021/10/30 12:18:46;;;;;;;8.07;5.75;;;;;;;;;;6277707;22;19995;-81
2021/10/30 12:21:13;;;;;;;10.57;8.50;;;;;;;;;;6279762;22;20074;-86
2021/10/30 12:23:57;;;;;;;9.50;7.50;;;;;;;;;;6279813;22;20075;-82
2021/10/30 12:26:26;;;;;;;6.82;5.85;;;;;;;;;;6279640;22;20010;-81
2021/10/30 12:28:52;;;;;;;8.38;6.18;;;;;;;;;;6279452;22;20003;-81
2021/10/30 12:31:29;;;;;;;7.30;6.00;;;;;;;;;;6279085;22;19999;-81
2021/10/30 12:33:55;;;;;;;9.68;6.85;;;;;;;;;;6279343;22;20004;-81
2021/10/30 12:36:20;;;;;;;10.57;7.93;;;;;;;;;;6279458;22;20378;-80
2021/10/30 12:38:56;;;;;;;10.63;6.78;;;;;;;;;;6279654;22;20332;-81
2021/10/30 12:41:28;;;;;;;10.70;7.05;;;;;;;;;;6278899;22;20075;-80
2021/10/30 12:43:57;;;;;;;8.68;7.07;;;;;;;;;;6279404;22;19999;-83
2021/10/30 12:46:23;;;;;;;;;;;;;;;;;;6280205;22;20027;-88
2021/10/30 12:48:48;;;;;;;8.10;6.75;;;;;;;;;;6279349;22;19907;-81
2021/10/30 12:51:17;;;;;;;9.60;7.63;;;;;;;;;;6279162;22;20070;-81
2021/10/30 12:53:44;;;;;;;12.73;9.43;;;;;;;;;;6279145;22;20004;-80
2021/10/30 12:56:18;;;;;;;11.65;8.57;;;;;;;;;;6279102;22;20004;-81
2021/10/30 12:58:48;;;;;;;10.02;7.07;;;;;;;;;;6252088;22;20379;-84
2021/10/30 13:01:16;;;;;;;9.98;7.45;;;;;;;;;;6279201;22;19999;-84
2021/10/30 13:03:41;;;;;;;11.68;8.85;;;;;;;;;;6252395;22;20376;-84
2021/10/30 13:06:11;;;;;;;15.48;10.57;;;;;;;;;;6279419;22;19999;-83
2021/10/30 13:08:52;;;;;;;11.73;9.82;;;;;;;;;;6278913;22;20003;-83
2021/10/30 13:11:18;;;;;;;15.63;10.75;;;;;;;;;;6278764;22;20016;-82
2021/10/30 13:13:45;;;;;;;12.52;9.85;;;;;;;;;;6279626;22;19999;-82
2021/10/30 13:16:11;;;;;;;13.98;11.13;;;;;;;;;;6279132;22;20069;-83
2021/10/30 13:18:36;;;;;;;14.30;11.00;;;;;;;;;;6278868;22;20000;-82
2021/10/30 13:21:02;;;;;;;14.93;11.18;;;;;;;;;;6278838;22;20023;-81
2021/10/30 13:23:28;;;;;;;15.95;10.88;;;;;;;;;;6279133;22;20415;-81
2021/10/30 13:25:54;;;;;;;14.27;10.98;;;;;;;;;;6278760;22;20007;-81
2021/10/30 13:28:19;;;;;;;14.45;11.13;;;;;;;;;;6279076;22;20007;-81
2021/10/30 13:30:45;;;;;;;14.65;10.35;;;;;;;;;;6278436;22;20007;-81
2021/10/30 13:33:11;;;;;;;12.73;10.50;;;;;;;;;;6278952;22;20035;-81
2021/10/30 13:35:36;;;;;;;14.90;10.07;;;;;;;;;;6278491;22;20054;-81
2021/10/30 13:38:02;;;;;;;13.55;10.13;;;;;;;;;;6278740;22;20011;-81
2021/10/30 13:40:27;;;;;;;15.38;10.52;;;;;;;;;;6278565;22;20362;-80
2021/10/30 13:42:53;;;;;;;12.25;8.60;;;;;;;;;;6278661;22;20082;-80
2021/10/30 13:45:19;;;;;;;13.23;8.40;;;;;;;;;;6278565;22;20079;-82
2021/10/30 13:47:44;;;;;;;12.75;8.90;;;;;;;;;;6278525;22;20085;-81
2021/10/30 13:50:10;;;;;;;12.95;9.10;;;;;;;;;;6278484;22;20034;-81
2021/10/30 13:52:35;;;;;;;10.93;8.52;;;;;;;;;;6278427;22;19999;-81
2021/10/30 13:55:01;;;;;;;11.95;8.98;;;;;;;;;;6278289;22;20069;-82
2021/10/30 13:57:27;;;;;;;13.90;9.25;;;;;;;;;;6278535;22;20000;-81
2021/10/30 13:59:52;;;;;;;11.52;8.77;;;;;;;;;;6251373;22;20035;-81
2021/10/30 14:02:18;;;;;;;15.20;9.38;;;;;;;;;;6251248;22;20008;-82
2021/10/30 14:04:43;;;;;;;14.40;9.73;;;;;;;;;;6278325;22;20007;-81
2021/10/30 14:07:09;;;;;;;14.82;10.73;;;;;;;;;;6251493;22;20026;-81
2021/10/30 14:09:34;;;;;;;16.17;10.18;;;;;;;;;;6278408;22;20015;-80
2021/10/30 14:12:00;;;;;;;16.05;11.88;;;;;;;;;;6278652;22;20015;-82
2021/10/30 14:14:25;;;;;;;14.73;10.88;;;;;;;;;;6278760;22;20003;-81
2021/10/30 14:16:50;;;;;;;14.80;11.23;;;;;;;;;;6278271;22;20004;-84
2021/10/30 14:19:16;;;;;;;15.57;11.02;;;;;;;;;;6278575;22;20086;-82
2021/10/30 14:21:41;;;;;;;14.40;10.40;;;;;;;;;;6277928;22;20006;-84
2021/10/30 14:24:09;;;;;;;17.95;13.07;;;;;;;;;;6279051;22;20051;-82
2021/10/30 14:26:34;;;;;;;16.05;12.65;;;;;;;;;;6278506;22;19999;-84
2021/10/30 14:29:00;;;;;;;16.40;11.73;;;;;;;;;;6278328;22;20010;-82
2021/10/30 14:31:25;;;;;;;14.57;11.48;;;;;;;;;;6278271;22;20082;-81
2021/10/30 14:33:51;;;;;;;14.70;10.95;;;;;;;;;;6278387;22;20489;-81
2021/10/30 14:36:17;;;;;;;18.60;12.77;;;;;;;;;;6278196;22;20000;-82
2021/10/30 14:38:42;;;;;;;20.40;14.20;;;;;;;;;;6278641;22;20057;-82
2021/10/30 14:41:08;;;;;;;19.92;14.70;;;;;;;;;;6278439;22;20034;-77
2021/10/30 14:43:34;;;;;;;18.05;13.02;;;;;;;;;;6277610;22;20046;-80
2021/10/30 14:46:00;;;;;;;18.55;13.82;;;;;;;;;;6278107;22;20075;-81
2021/10/30 14:48:26;;;;;;;16.42;13.27;;;;;;;;;;6250571;22;20007;-80
2021/10/30 14:50:55;;;;;;;17.85;13.13;;;;;;;;;;6277958;22;20004;-81
2021/10/30 14:53:21;;;;;;;20.33;13.38;;;;;;;;;;6277757;22;20140;-82
2021/10/30 14:55:47;;;;;;;21.13;14.55;;;;;;;;;;6278121;22;20008;-84
2021/10/30 14:58:12;;;;;;;18.95;13.10;;;;;;;;;;6277908;22;20003;-82
2021/10/30 15:00:39;;;;;;;22.15;15.70;;;;;;;;;;6277848;22;20003;-82
2021/10/30 15:03:08;;;;;;;22.08;16.17;;;;;;;;;;6277718;22;19996;-82
2021/10/30 15:05:35;;;;;;;20.85;15.95;;;;;;;;;;6277626;22;20491;-83
2021/10/30 15:08:03;;;;;;;20.75;15.00;;;;;;;;;;6277878;22;20427;-83
2021/10/30 15:10:29;;;;;;;20.98;15.57;;;;;;;;;;6277498;22;20012;-82
2021/10/30 15:12:55;;;;;;;18.48;13.70;;;;;;;;;;6277861;22;20003;-80
2021/10/30 15:15:20;;;;;;;23.70;13.90;;;;;;;;;;6277788;22;20371;-81
2021/10/30 15:17:46;;;;;;;18.50;13.27;;;;;;;;;;6277670;22;20018;-88
2021/10/30 15:20:11;;;;;;;19.52;13.60;;;;;;;;;;6278412;22;20003;-83
2021/10/30 15:22:37;;;;;;;21.17;14.13;;;;;;;;;;6250699;22;20122;-80
2021/10/30 15:25:04;;;;;;;17.85;13.40;;;;;;;;;;6277553;22;20006;-81
2021/10/30 15:27:30;;;;;;;17.05;13.15;;;;;;;;;;6250565;22;20304;-86
2021/10/30 15:29:55;;;;;;;16.65;12.30;;;;;;;;;;6250869;22;20022;-83
2021/10/30 15:32:21;;;;;;;16.17;12.02;;;;;;;;;;6277147;22;20087;-83
2021/10/30 15:34:50;;;;;;;19.33;12.95;;;;;;;;;;6278111;22;20000;-88
2021/10/30 15:37:16;;;;;;;16.75;12.25;;;;;;;;;;6278862;22;20029;-88
2021/10/30 15:39:42;;;;;;;18.73;13.35;;;;;;;;;;6279281;22;20004;-90
2021/10/30 15:42:10;;;;;;;18.60;13.88;;;;;;;;;;6279440;22;20006;-87
2021/10/30 15:44:37;;;;;;;16.17;13.02;;;;;;;;;;6252759;22;20023;-89
2021/10/30 15:47:03;;;;;;;22.60;14.95;;;;;;;;;;6279716;22;20000;-83
2021/10/30 15:49:30;;;;;;;20.50;14.30;;;;;;;;;;6278841;22;20049;-88
2021/10/30 15:51:57;;;;;;;20.00;13.98;;;;;;;;;;6278688;22;20007;-86
2021/10/30 15:54:22;;;;;;;16.00;12.88;;;;;;;;;;6278532;22;20034;-90
2021/10/30 15:56:48;;;;;;;17.15;12.52;;;;;;;;;;6279290;22;20004;-88
2021/10/30 15:59:14;;;;;;;18.42;13.40;;;;;;;;;;6279012;22;20035;-89
2021/10/30 16:01:39;;;;;;;17.27;12.90;;;;;;;;;;6279207;22;20000;-82
2021/10/30 16:04:05;;;;;;;19.92;14.95;;;;;;;;;;6252372;22;20035;-89
2021/10/30 16:06:31;;;;;;;19.45;14.43;;;;;;;;;;6278856;22;20366;-89
2021/10/30 16:08:57;;;;;;;17.33;12.95;;;;;;;;;;6278910;22;20014;-87
2021/10/30 16:11:27;;;;;;;17.60;13.50;;;;;;;;;;6279079;22;20309;-92
2021/10/30 16:13:53;;;;;;;18.23;13.02;;;;;;;;;;6279512;22;20010;-93
2021/10/30 16:16:19;;;;;;;19.48;14.50;;;;;;;;;;6252617;22;20003;-91
2021/10/30 16:18:45;;;;;;;19.55;14.35;;;;;;;;;;6279477;22;20004;-92
2021/10/30 16:21:11;;;;;;;19.15;13.80;;;;;;;;;;6279905;22;20461;-93
2021/10/30 16:23:37;;;;;;;19.90;14.75;;;;;;;;;;6253913;22;20007;-93
2021/10/30 16:26:03;;;;;;;20.45;14.60;;;;;;;;;;6281168;22;20030;-93
2021/10/30 16:28:28;;;;;;;21.83;15.10;;;;;;;;;;6280463;22;20000;-90
2021/10/30 16:30:54;;;;;;;19.52;14.52;;;;;;;;;;6279366;22;20365;-82
2021/10/30 16:33:20;;;;;;;19.27;14.45;;;;;;;;;;6278031;22;20036;-87
2021/10/30 16:35:46;;;;;;;23.23;17.15;;;;;;;;;;6277855;22;20030;-89
2021/10/30 16:38:11;;;;;;;24.13;16.90;;;;;;;;;;6278087;22;20419;-86
2021/10/30 16:40:37;;;;;;;24.70;16.50;;;;;;;;;;6277728;22;20438;-86
2021/10/30 16:43:04;;;;;;;21.77;16.13;;;;;;;;;;6277380;22;20063;-86
2021/10/30 16:45:29;;;;;;;20.85;15.18;;;;;;;;;;6277440;22;19999;-86
2021/10/30 16:47:56;;;;;;;22.70;15.68;;;;;;;;;;6277746;22;20427;-86
2021/10/30 16:50:28;;;;;;;23.83;15.82;;;;;;;;;;6277372;22;20003;-86
2021/10/30 16:52:53;;;;;;;25.83;17.08;;;;;;;;;;6277575;22;20054;-86
2021/10/30 16:55:19;;;;;;;22.42;15.10;;;;;;;;;;6277360;22;20000;-84
2021/10/30 16:57:44;;;;;;;27.65;18.45;;;;;;;;;;6278258;22;20061;-87
2021/10/30 17:00:10;;;;;;;25.25;16.33;;;;;;;;;;6277492;22;19996;-84
2021/10/30 17:02:36;;;;;;;24.80;17.52;;;;;;;;;;6277427;22;20364;-87
2021/10/30 17:05:01;;;;;;;25.35;17.15;;;;;;;;;;6277515;22;20038;-85
2021/10/30 17:07:27;;;;;;;28.05;19.55;;;;;;;;;;6278843;22;20026;-84
2021/10/30 17:09:52;;;;;;;30.65;21.05;;;;;;;;;;6279055;22;20058;-86
2021/10/30 17:12:19;;;;;;;27.13;19.27;;;;;;;;;;6279092;22;20022;-84
2021/10/30 17:14:45;;;;;;;26.50;19.10;;;;;;;;;;6278993;22;20007;-83
2021/10/30 17:17:10;;;;;;;25.98;19.15;;;;;;;;;;6279577;22;20008;-82
2021/10/30 17:19:36;;;;;;;26.35;18.33;;;;;;;;;;6279639;22;20078;-83
2021/10/30 17:22:03;;;;;;;28.27;20.38;;;;;;;;;;6278994;22;20004;-85
2021/10/30 17:24:29;;;;;;;30.50;22.27;;;;;;;;;;6279313;22;20061;-84
2021/10/30 17:26:54;;;;;;;31.75;22.13;;;;;;;;;;6279578;22;20357;-84
2021/10/30 17:29:20;;;;;;;27.60;20.23;;;;;;;;;;6278988;22;20094;-82
2021/10/30 17:31:47;;;;;;;30.80;21.50;;;;;;;;;;6278983;22;20006;-80
2021/10/30 17:34:12;;;;;;;32.22;22.40;;;;;;;;;;6278965;22;20076;-79
2021/10/30 17:36:40;;;;;;;31.45;22.63;;;;;;;;;;6251810;22;20042;-81
2021/10/30 17:39:05;;;;;;;33.55;23.73;;;;;;;;;;6278819;22;20008;-81
2021/10/30 17:41:31;;;;;;;34.33;23.50;;;;;;;;;;6278717;22;20438;-81
2021/10/30 17:43:58;;;;;;;34.53;24.15;;;;;;;;;;6279808;22;20006;-85
2021/10/30 17:46:23;;;;;;;34.03;24.70;;;;;;;;;;6279489;22;20007;-80
2021/10/30 17:48:48;;;;;;;36.72;24.58;;;;;;;;;;6278581;22;19999;-80
2021/10/30 17:51:14;;;;;;;38.53;26.38;;;;;;;;;;6280312;22;20026;-78
2021/10/30 17:53:39;;;;;;;36.08;25.73;;;;;;;;;;6279304;22;20015;-85
2021/10/30 17:56:05;;;;;;;40.17;25.80;;;;;;;;;;6279338;22;20004;-80
2021/10/30 17:58:30;;;;;;;39.03;26.83;;;;;;;;;;6278455;22;20011;-79
2021/10/30 18:00:56;;;;;;;37.85;25.52;;;;;;;;;;6278922;22;20052;-79
2021/10/30 18:03:22;;;;;;;38.47;26.02;;;;;;;;;;6251262;22;20004;-79
2021/10/30 18:05:47;;;;;;;33.63;23.92;;;;;;;;;;6278578;22;20423;-78
2021/10/30 18:08:13;;;;;;;34.72;23.17;;;;;;;;;;6278244;22;20373;-80
2021/10/30 18:10:39;;;;;;;36.40;23.95;;;;;;;;;;6277935;22;20042;-77
2021/10/30 18:13:04;;;;;;;32.65;22.88;;;;;;;;;;6277993;22;20419;-77
2021/10/30 18:15:34;;;;;;;34.03;22.17;;;;;;;;;;6278399;22;20088;-78
2021/10/30 18:18:00;;;;;;;33.08;22.50;;;;;;;;;;6252461;22;20029;-79
2021/10/30 18:20:26;;;;;;;35.13;25.20;;;;;;;;;;6278402;22;20008;-79
2021/10/30 18:22:51;;;;;;;32.97;22.77;;;;;;;;;;6278289;22;20007;-81
2021/10/30 18:25:17;;;;;;;33.40;23.50;;;;;;;;;;6278324;22;20031;-82
2021/10/30 18:27:43;;;;;;;32.28;22.65;;;;;;;;;;6278326;22;20420;-83
2021/10/30 18:30:10;;;;;;;32.53;23.05;;;;;;;;;;6278476;22;20004;-85
2021/10/30 18:32:36;;;;;;;36.50;24.25;;;;;;;;;;6278353;22;20011;-78
2021/10/30 18:35:02;;;;;;;30.02;22.35;;;;;;;;;;6278056;22;20000;-76
2021/10/30 18:37:28;;;;;;;32.22;22.00;;;;;;;;;;6278147;22;20126;-79
2021/10/30 18:39:54;;;;;;;32.97;22.42;;;;;;;;;;6278161;22;20000;-79
2021/10/30 18:42:19;;;;;;;33.92;21.98;;;;;;;;;;6277831;22;20003;-80
2021/10/30 18:44:45;;;;;;;31.83;22.80;;;;;;;;;;6278209;22;20510;-79
2021/10/30 18:47:10;;;;;;;32.25;22.58;;;;;;;;;;6277981;22;20026;-79
2021/10/30 18:49:36;;;;;;;34.13;23.58;;;;;;;;;;6278047;22;20018;-78
2021/10/30 18:52:02;;;;;;;33.97;23.08;;;;;;;;;;6277619;22;20033;-80
2021/10/30 18:54:28;;;;;;;33.47;22.58;;;;;;;;;;6277924;22;20003;-80
2021/10/30 18:56:56;;;;;;;33.08;23.05;;;;;;;;;;6277959;22;20327;-80
2021/10/30 18:59:27;;;;;;;33.15;22.90;;;;;;;;;;6277712;22;20473;-80
2021/10/30 19:01:52;;;;;;;37.40;24.42;;;;;;;;;;6277797;22;20487;-80
2021/10/30 19:04:19;;;;;;;38.47;25.33;;;;;;;;;;6277776;22;19999;-80
2021/10/30 19:06:44;;;;;;;35.67;26.50;;;;;;;;;;6277676;22;19999;-80
2021/10/30 19:09:10;;;;;;;34.53;23.95;;;;;;;;;;6250175;22;20030;-80
2021/10/30 19:11:35;;;;;;;34.85;24.52;;;;;;;;;;6277687;22;20012;-80
2021/10/30 19:14:04;;;;;;;34.60;25.15;;;;;;;;;;6278009;22;20004;-80
2021/10/30 19:16:32;;;;;;;37.13;24.13;;;;;;;;;;6278088;22;20411;-80
2021/10/30 19:18:58;;;;;;;36.30;25.20;;;;;;;;;;6277633;22;20007;-80
2021/10/30 19:21:24;;;;;;;36.75;24.08;;;;;;;;;;6277681;22;20011;-80
2021/10/30 19:23:50;;;;;;;34.83;23.33;;;;;;;;;;6277635;22;20004;-80
2021/10/30 19:26:15;;;;;;;31.27;22.95;;;;;;;;;;6277619;22;20419;-80
2021/10/30 19:28:41;;;;;;;37.30;22.75;;;;;;;;;;6277367;22;20000;-80
2021/10/30 19:31:07;;;;;;;34.42;22.67;;;;;;;;;;6277698;22;20423;-80
2021/10/30 19:33:34;;;;;;;37.15;23.95;;;;;;;;;;6250273;22;20004;-80
2021/10/30 19:35:59;;;;;;;38.55;24.52;;;;;;;;;;6277674;22;20004;-80
2021/10/30 19:38:25;;;;;;;43.72;29.25;;;;;;;;;;6277385;22;20323;-80
2021/10/30 19:40:52;;;;;;;47.53;32.17;;;;;;;;;;6277924;22;20008;-80
2021/10/30 19:43:19;;;;;;;50.72;33.88;;;;;;;;;;6277375;22;20465;-80
2021/10/30 19:45:46;;;;;;;41.80;29.10;;;;;;;;;;6277586;22;20026;-80
2021/10/30 19:48:15;;;;;;;42.70;29.85;;;;;;;;;;6277714;22;20078;-80
2021/10/30 19:50:41;;;;;;;48.30;31.92;;;;;;;;;;6277381;22;20076;-80
2021/10/30 19:53:07;;;;;;;45.85;30.63;;;;;;;;;;6277416;22;20025;-80
2021/10/30 19:55:32;;;;;;;44.55;29.92;;;;;;;;;;6277388;22;20074;-80
2021/10/30 19:57:57;;;;;;;41.92;27.95;;;;;;;;;;6277632;22;20004;-80
2021/10/30 20:00:23;;;;;;;41.05;27.80;;;;;;;;;;6277682;22;20305;-81
2021/10/30 20:02:49;;;;;;;37.72;24.08;;;;;;;;;;6277287;22;20004;-80
2021/10/30 20:05:14;;;;;;;34.00;22.63;;;;;;;;;;6277256;22;20038;-80
2021/10/30 20:07:40;;;;;;;35.25;23.38;;;;;;;;;;6277274;22;19999;-80
2021/10/30 20:10:07;;;;;;;36.88;25.15;;;;;;;;;;6277474;22;20012;-80
2021/10/30 20:12:33;;;;;;;39.30;27.13;;;;;;;;;;6277365;22;20008;-80
2021/10/30 20:14:59;;;;;;;38.08;25.75;;;;;;;;;;6277183;22;20011;-80
2021/10/30 20:17:24;;;;;;;29.88;21.10;;;;;;;;;;6250316;22;20008;-80
2021/10/30 20:19:50;;;;;;;32.95;21.98;;;;;;;;;;6277547;22;20095;-80
2021/10/30 20:22:16;;;;;;;36.75;25.13;;;;;;;;;;6277047;22;20046;-80
2021/10/30 20:24:42;;;;;;;36.10;24.08;;;;;;;;;;6277500;22;20305;-80
2021/10/30 20:27:09;;;;;;;37.17;25.67;;;;;;;;;;6277285;22;20007;-80
2021/10/30 20:29:34;;;;;;;34.80;24.05;;;;;;;;;;6250155;22;20004;-80
2021/10/30 20:32:00;;;;;;;29.17;21.70;;;;;;;;;;6276951;22;20007;-80
2021/10/30 20:34:25;;;;;;;31.38;21.33;;;;;;;;;;6277490;22;20000;-80
2021/10/30 20:36:52;;;;;;;27.08;19.35;;;;;;;;;;6277915;22;20130;-81
2021/10/30 20:39:19;;;;;;;24.98;17.83;;;;;;;;;;6278085;22;20004;-80
2021/10/30 20:41:46;;;;;;;27.02;18.13;;;;;;;;;;6253700;22;20018;-80
2021/10/30 20:44:13;;;;;;;27.60;19.45;;;;;;;;;;6282318;22;20009;-81
2021/10/30 20:46:42;;;;;;;20.58;14.35;;;;;;;;;;6284573;22;20077;-80
2021/10/30 20:49:09;;;;;;;20.58;14.23;;;;;;;;;;6283337;22;20065;-80
2021/10/30 20:51:35;;;;;;;26.85;20.00;;;;;;;;;;6282489;22;20489;-81
2021/10/30 20:54:01;;;;;;;36.97;25.33;;;;;;;;;;6283337;22;20000;-80
2021/10/30 20:56:28;;;;;;;47.45;30.15;;;;;;;;;;6283256;22;20503;-80
2021/10/30 20:58:54;;;;;;;37.70;26.02;;;;;;;;;;6281585;22;19999;-80
2021/10/30 21:01:20;;;;;;;22.27;16.35;;;;;;;;;;6279286;22;20461;-80
2021/10/30 21:03:45;;;;;;;24.65;16.38;;;;;;;;;;6279016;22;19999;-80
2021/10/30 21:06:11;;;;;;;26.45;18.02;;;;;;;;;;6279133;22;20018;-80
2021/10/30 21:08:37;;;;;;;31.55;22.23;;;;;;;;;;6279112;22;20010;-81
2021/10/30 21:11:04;;;;;;;38.67;24.23;;;;;;;;;;6279006;22;20434;-80
2021/10/30 21:13:29;;;;;;;38.72;24.13;;;;;;;;;;6278830;22;20004;-80
2021/10/30 21:15:55;;;;;;;35.83;24.60;;;;;;;;;;6279008;22;20031;-80
2021/10/30 21:18:20;;;;;;;31.13;20.70;;;;;;;;;;6251906;22;20331;-81
2021/10/30 21:20:46;;;;;;;27.25;18.23;;;;;;;;;;6278937;22;20003;-81
2021/10/30 21:23:13;;;;;;;26.50;18.30;;;;;;;;;;6278878;22;20373;-80
2021/10/30 21:25:38;;;;;;;29.88;19.88;;;;;;;;;;6278993;22;20070;-80
2021/10/30 21:28:04;;;;;;;27.33;18.15;;;;;;;;;;6279010;22;20364;-81
2021/10/30 21:30:29;;;;;;;25.10;16.67;;;;;;;;;;6278670;22;20007;-81
2021/10/30 21:32:55;;;;;;;22.83;15.88;;;;;;;;;;6278900;22;20007;-81
2021/10/30 21:35:22;;;;;;;27.65;18.77;;;;;;;;;;6251632;22;20004;-81
2021/10/30 21:37:48;;;;;;;28.58;19.73;;;;;;;;;;6252756;22;20005;-80
2021/10/30 21:40:13;;;;;;;19.60;14.88;;;;;;;;;;6279073;22;20075;-80
2021/10/30 21:42:39;;;;;;;21.40;14.32;;;;;;;;;;6278897;22;20007;-80
2021/10/30 21:45:07;;;;;;;23.48;15.18;;;;;;;;;;6278506;22;20007;-81
2021/10/30 21:47:34;;;;;;;25.67;17.27;;;;;;;;;;6252273;22;20331;-80
2021/10/30 21:49:59;;;;;;;22.13;16.08;;;;;;;;;;6278440;22;20308;-80
2021/10/30 21:52:25;;;;;;;24.15;16.30;;;;;;;;;;6278612;22;20010;-80
2021/10/30 21:54:50;;;;;;;28.38;19.30;;;;;;;;;;6278528;22;20004;-80
2021/10/30 21:57:15;;;;;;;29.30;19.05;;;;;;;;;;6278942;22;20000;-80
2021/10/30 21:59:41;;;;;;;31.08;20.33;;;;;;;;;;6278605;22;20038;-80
2021/10/30 22:02:06;;;;;;;34.50;22.88;;;;;;;;;;6278360;22;20010;-80
2021/10/30 22:04:32;;;;;;;34.25;22.75;;;;;;;;;;6278315;22;20011;-80
2021/10/30 22:06:57;;;;;;;33.40;22.85;;;;;;;;;;6279158;22;20026;-83
2021/10/30 22:09:23;;;;;;;35.72;23.50;;;;;;;;;;6278617;22;20015;-80
2021/10/30 22:11:48;;;;;;;38.38;25.15;;;;;;;;;;6278289;22;20015;-80
2021/10/30 22:14:13;;;;;;;35.45;24.35;;;;;;;;;;6278360;22;20004;-84
